createdAt,value
2023-04-18T00:00:16.206Z,1003.90
2023-04-18T00:01:16.165Z,1003.90
2023-04-18T00:02:16.224Z,1003.90
2023-04-18T00:03:16.655Z,1003.91
2023-04-18T00:04:16.605Z,1003.91
2023-04-18T00:05:16.171Z,1003.91
2023-04-18T00:06:16.114Z,1003.93
2023-04-18T00:07:16.102Z,1003.92
2023-04-18T00:08:16.100Z,1003.92
2023-04-18T00:09:16.123Z,1003.92
2023-04-18T00:10:16.167Z,1003.91
2023-04-18T00:11:16.059Z,1003.91
2023-04-18T00:12:16.051Z,1003.93
2023-04-18T00:13:16.030Z,1003.92
2023-04-18T00:14:16.101Z,1003.91
2023-04-18T00:15:16.042Z,1003.92
2023-04-18T00:16:16.064Z,1003.91
2023-04-18T00:17:15.996Z,1003.92
2023-04-18T00:18:15.992Z,1003.92
2023-04-18T00:19:15.972Z,1003.91
2023-04-18T00:20:16.048Z,1003.91
2023-04-18T00:21:15.969Z,1003.91
2023-04-18T00:22:15.956Z,1003.91
2023-04-18T00:23:15.975Z,1003.90
2023-04-18T00:24:16.048Z,1003.89
2023-04-18T00:25:15.949Z,1003.90
2023-04-18T00:26:15.932Z,1003.88
2023-04-18T00:27:15.890Z,1003.88
2023-04-18T00:28:15.886Z,1003.89
2023-04-18T00:29:15.882Z,1003.89
2023-04-18T00:30:15.918Z,1003.89
2023-04-18T00:31:15.878Z,1003.89
2023-04-18T00:32:15.927Z,1003.87
2023-04-18T00:33:15.827Z,1003.87
2023-04-18T00:34:15.930Z,1003.87
2023-04-18T00:35:15.849Z,1003.86
2023-04-18T00:36:15.813Z,1003.87
2023-04-18T00:37:15.837Z,1003.87
2023-04-18T00:38:15.777Z,1003.88
2023-04-18T00:39:15.780Z,1003.88
2023-04-18T00:40:15.781Z,1003.89
2023-04-18T00:41:15.753Z,1003.89
2023-04-18T00:42:15.751Z,1003.89
2023-04-18T00:43:15.731Z,1003.89
2023-04-18T00:44:15.886Z,1003.89
2023-04-18T00:45:15.734Z,1003.89
2023-04-18T00:46:15.722Z,1003.89
2023-04-18T00:47:15.689Z,1003.89
2023-04-18T00:48:15.685Z,1003.89
2023-04-18T00:49:15.669Z,1003.88
2023-04-18T00:50:15.722Z,1003.89
2023-04-18T00:51:15.657Z,1003.89
2023-04-18T00:52:15.634Z,1003.89
2023-04-18T00:53:15.624Z,1003.89
2023-04-18T00:54:15.855Z,1003.88
2023-04-18T00:55:15.626Z,1003.87
2023-04-18T00:56:15.593Z,1003.86
2023-04-18T00:57:15.589Z,1003.87
2023-04-18T00:58:15.580Z,1003.87
2023-04-18T00:59:15.568Z,1003.86
2023-04-18T01:00:15.619Z,1003.85
2023-04-18T01:01:15.592Z,1003.84
2023-04-18T01:02:15.605Z,1003.82
2023-04-18T01:03:15.600Z,1003.81
2023-04-18T01:04:15.880Z,1003.79
2023-04-18T01:05:15.539Z,1003.79
2023-04-18T01:06:15.500Z,1003.77
2023-04-18T01:07:15.520Z,1003.77
2023-04-18T01:08:15.464Z,1003.78
2023-04-18T01:09:15.468Z,1003.78
2023-04-18T01:10:15.498Z,1003.79
2023-04-18T01:11:15.442Z,1003.78
2023-04-18T01:12:15.426Z,1003.78
2023-04-18T01:13:15.430Z,1003.77
2023-04-18T01:14:15.485Z,1003.77
2023-04-18T01:15:15.441Z,1003.75
2023-04-18T01:16:15.434Z,1003.75
2023-04-18T01:17:15.388Z,1003.74
2023-04-18T01:18:15.380Z,1003.74
2023-04-18T01:19:15.371Z,1003.75
2023-04-18T01:20:15.368Z,1003.75
2023-04-18T01:21:15.345Z,1003.74
2023-04-18T01:22:15.325Z,1003.73
2023-04-18T01:23:15.322Z,1003.73
2023-04-18T01:24:15.737Z,1003.72
2023-04-18T01:25:15.334Z,1003.71
2023-04-18T01:26:15.284Z,1003.69
2023-04-18T01:27:15.284Z,1003.69
2023-04-18T01:28:15.273Z,1003.68
2023-04-18T01:29:15.258Z,1003.68
2023-04-18T01:30:15.272Z,1003.66
2023-04-18T01:31:15.335Z,1003.66
2023-04-18T01:32:15.221Z,1003.66
2023-04-18T01:33:15.237Z,1003.66
2023-04-18T01:34:15.487Z,1003.67
2023-04-18T01:35:15.319Z,1003.68
2023-04-18T01:36:15.176Z,1003.68
2023-04-18T01:37:15.192Z,1003.68
2023-04-18T01:38:15.156Z,1003.67
2023-04-18T01:39:15.164Z,1003.68
2023-04-18T01:40:15.157Z,1003.67
2023-04-18T01:41:15.131Z,1003.68
2023-04-18T01:42:15.126Z,1003.68
2023-04-18T01:43:15.127Z,1003.67
2023-04-18T01:44:15.306Z,1003.68
2023-04-18T01:45:15.120Z,1003.67
2023-04-18T01:46:15.125Z,1003.66
2023-04-18T01:47:15.082Z,1003.66
2023-04-18T01:48:15.061Z,1003.65
2023-04-18T01:49:15.060Z,1003.63
2023-04-18T01:50:15.040Z,1003.62
2023-04-18T01:51:15.049Z,1003.62
2023-04-18T01:52:15.013Z,1003.64
2023-04-18T01:53:15.024Z,1003.62
2023-04-18T01:54:15.320Z,1003.63
2023-04-18T01:55:15.014Z,1003.62
2023-04-18T01:56:14.980Z,1003.60
2023-04-18T01:57:14.969Z,1003.60
2023-04-18T01:58:14.950Z,1003.58
2023-04-18T01:59:14.962Z,1003.58
2023-04-18T02:00:14.985Z,1003.57
2023-04-18T02:01:14.973Z,1003.56
2023-04-18T02:02:14.969Z,1003.55
2023-04-18T02:03:15.028Z,1003.54
2023-04-18T02:04:15.219Z,1003.54
2023-04-18T02:05:14.924Z,1003.52
2023-04-18T02:06:14.865Z,1003.51
2023-04-18T02:07:14.861Z,1003.51
2023-04-18T02:08:14.851Z,1003.50
2023-04-18T02:09:14.855Z,1003.51
2023-04-18T02:10:14.914Z,1003.52
2023-04-18T02:11:14.834Z,1003.53
2023-04-18T02:12:14.812Z,1003.52
2023-04-18T02:13:14.810Z,1003.53
2023-04-18T02:14:15.088Z,1003.55
2023-04-18T02:15:14.822Z,1003.58
2023-04-18T02:16:14.846Z,1003.60
2023-04-18T02:17:14.766Z,1003.61
2023-04-18T02:18:14.753Z,1003.60
2023-04-18T02:19:14.750Z,1003.61
2023-04-18T02:20:14.784Z,1003.61
2023-04-18T02:21:14.770Z,1003.61
2023-04-18T02:22:14.712Z,1003.60
2023-04-18T02:23:14.709Z,1003.60
2023-04-18T02:24:14.955Z,1003.60
2023-04-18T02:25:14.682Z,1003.60
2023-04-18T02:26:14.694Z,1003.61
2023-04-18T02:27:14.669Z,1003.61
2023-04-18T02:28:14.656Z,1003.63
2023-04-18T02:29:14.660Z,1003.64
2023-04-18T02:30:14.679Z,1003.64
2023-04-18T02:31:14.831Z,1003.65
2023-04-18T02:32:14.612Z,1003.64
2023-04-18T02:33:14.607Z,1003.64
2023-04-18T02:34:14.847Z,1003.63
2023-04-18T02:35:14.585Z,1003.64
2023-04-18T02:36:14.588Z,1003.64
2023-04-18T02:37:14.572Z,1003.64
2023-04-18T02:38:14.553Z,1003.62
2023-04-18T02:39:14.556Z,1003.61
2023-04-18T02:40:14.532Z,1003.59
2023-04-18T02:41:14.557Z,1003.59
2023-04-18T02:42:14.510Z,1003.58
2023-04-18T02:43:14.504Z,1003.58
2023-04-18T02:44:14.758Z,1003.59
2023-04-18T02:45:14.499Z,1003.59
2023-04-18T02:46:14.557Z,1003.59
2023-04-18T02:47:14.463Z,1003.60
2023-04-18T02:48:14.457Z,1003.60
2023-04-18T02:49:14.436Z,1003.61
2023-04-18T02:50:14.435Z,1003.61
2023-04-18T02:51:14.443Z,1003.64
2023-04-18T02:52:14.432Z,1003.65
2023-04-18T02:53:14.461Z,1003.64
2023-04-18T02:54:14.597Z,1003.64
2023-04-18T02:55:14.382Z,1003.64
2023-04-18T02:56:14.391Z,1003.66
2023-04-18T02:57:14.365Z,1003.66
2023-04-18T02:58:14.343Z,1003.66
2023-04-18T02:59:14.339Z,1003.66
2023-04-18T03:00:14.322Z,1003.65
2023-04-18T03:01:14.366Z,1003.62
2023-04-18T03:02:14.325Z,1003.63
2023-04-18T03:03:14.360Z,1003.62
2023-04-18T03:04:14.400Z,1003.62
2023-04-18T03:05:14.293Z,1003.63
2023-04-18T03:06:14.269Z,1003.64
2023-04-18T03:07:14.262Z,1003.64
2023-04-18T03:08:14.241Z,1003.66
2023-04-18T03:09:14.266Z,1003.66
2023-04-18T03:10:14.339Z,1003.66
2023-04-18T03:11:14.235Z,1003.67
2023-04-18T03:12:14.197Z,1003.68
2023-04-18T03:13:14.197Z,1003.69
2023-04-18T03:14:14.432Z,1003.70
2023-04-18T03:15:14.179Z,1003.69
2023-04-18T03:16:14.216Z,1003.69
2023-04-18T03:17:14.166Z,1003.70
2023-04-18T03:18:14.146Z,1003.67
2023-04-18T03:19:14.137Z,1003.66
2023-04-18T03:20:14.126Z,1003.65
2023-04-18T03:21:14.180Z,1003.67
2023-04-18T03:22:14.158Z,1003.66
2023-04-18T03:23:14.105Z,1003.67
2023-04-18T03:24:14.300Z,1003.67
2023-04-18T03:25:14.094Z,1003.68
2023-04-18T03:26:14.077Z,1003.68
2023-04-18T03:27:14.055Z,1003.70
2023-04-18T03:28:14.041Z,1003.69
2023-04-18T03:29:14.043Z,1003.69
2023-04-18T03:30:14.039Z,1003.69
2023-04-18T03:31:14.050Z,1003.69
2023-04-18T03:32:13.992Z,1003.72
2023-04-18T03:33:14.001Z,1003.72
2023-04-18T03:34:14.123Z,1003.72
2023-04-18T03:35:13.974Z,1003.73
2023-04-18T03:36:13.977Z,1003.72
2023-04-18T03:37:13.953Z,1003.75
2023-04-18T03:38:13.939Z,1003.74
2023-04-18T03:39:13.945Z,1003.73
2023-04-18T03:40:13.912Z,1003.73
2023-04-18T03:41:13.935Z,1003.74
2023-04-18T03:42:13.911Z,1003.76
2023-04-18T03:43:13.906Z,1003.77
2023-04-18T03:44:14.119Z,1003.78
2023-04-18T03:45:13.881Z,1003.78
2023-04-18T03:46:13.967Z,1003.78
2023-04-18T03:47:13.871Z,1003.77
2023-04-18T03:48:13.855Z,1003.78
2023-04-18T03:49:13.786Z,1003.79
2023-04-18T03:50:13.834Z,1003.77
2023-04-18T03:51:13.830Z,1003.78
2023-04-18T03:52:13.827Z,1003.78
2023-04-18T03:53:13.755Z,1003.79
2023-04-18T03:54:13.895Z,1003.79
2023-04-18T03:55:13.725Z,1003.79
2023-04-18T03:56:13.782Z,1003.78
2023-04-18T03:57:13.761Z,1003.78
2023-04-18T03:58:13.710Z,1003.78
2023-04-18T03:59:13.698Z,1003.80
2023-04-18T04:00:13.707Z,1003.81
2023-04-18T04:01:13.751Z,1003.80
2023-04-18T04:02:13.821Z,1003.82
2023-04-18T04:03:13.791Z,1003.81
2023-04-18T04:04:14.206Z,1003.82
2023-04-18T04:05:13.629Z,1003.81
2023-04-18T04:06:13.646Z,1003.80
2023-04-18T04:07:13.610Z,1003.80
2023-04-18T04:08:13.592Z,1003.79
2023-04-18T04:09:13.581Z,1003.79
2023-04-18T04:10:13.601Z,1003.79
2023-04-18T04:11:13.589Z,1003.80
2023-04-18T04:12:13.553Z,1003.80
2023-04-18T04:13:13.639Z,1003.81
2023-04-18T04:14:13.979Z,1003.82
2023-04-18T04:15:13.522Z,1003.81
2023-04-18T04:16:13.617Z,1003.83
2023-04-18T04:17:13.507Z,1003.85
2023-04-18T04:18:13.494Z,1003.87
2023-04-18T04:19:13.510Z,1003.87
2023-04-18T04:20:13.469Z,1003.86
2023-04-18T04:21:13.500Z,1003.86
2023-04-18T04:22:13.566Z,1003.86
2023-04-18T04:23:13.458Z,1003.88
2023-04-18T04:24:13.928Z,1003.90
2023-04-18T04:25:13.422Z,1003.92
2023-04-18T04:26:13.422Z,1003.92
2023-04-18T04:27:13.413Z,1003.94
2023-04-18T04:28:13.385Z,1003.97
2023-04-18T04:29:13.394Z,1003.98
2023-04-18T04:30:13.540Z,1004.00
2023-04-18T04:31:13.707Z,1004.03
2023-04-18T04:32:13.391Z,1004.04
2023-04-18T04:33:13.345Z,1004.03
2023-04-18T04:34:13.494Z,1004.04
2023-04-18T04:35:13.342Z,1004.03
2023-04-18T04:36:13.676Z,1004.04
2023-04-18T04:37:13.320Z,1004.05
2023-04-18T04:38:13.289Z,1004.07
2023-04-18T04:39:13.288Z,1004.08
2023-04-18T04:40:13.272Z,1004.08
2023-04-18T04:41:13.293Z,1004.09
2023-04-18T04:42:13.283Z,1004.10
2023-04-18T04:43:13.239Z,1004.10
2023-04-18T04:44:13.431Z,1004.10
2023-04-18T04:45:13.221Z,1004.07
2023-04-18T04:46:13.277Z,1004.09
2023-04-18T04:47:13.206Z,1004.10
2023-04-18T04:48:13.191Z,1004.12
2023-04-18T04:49:13.175Z,1004.12
2023-04-18T04:50:13.261Z,1004.12
2023-04-18T04:51:13.170Z,1004.13
2023-04-18T04:52:13.141Z,1004.13
2023-04-18T04:53:13.208Z,1004.13
2023-04-18T04:54:13.302Z,1004.12
2023-04-18T04:55:13.145Z,1004.12
2023-04-18T04:56:13.140Z,1004.13
2023-04-18T04:57:13.090Z,1004.12
2023-04-18T04:58:13.118Z,1004.12
2023-04-18T04:59:13.139Z,1004.13
2023-04-18T05:00:13.061Z,1004.13
2023-04-18T05:01:13.125Z,1004.13
2023-04-18T05:02:13.133Z,1004.13
2023-04-18T05:03:13.167Z,1004.15
2023-04-18T05:04:13.373Z,1004.16
2023-04-18T05:05:13.018Z,1004.17
2023-04-18T05:06:13.027Z,1004.18
2023-04-18T05:07:13.012Z,1004.19
2023-04-18T05:08:13.001Z,1004.20
2023-04-18T05:09:12.978Z,1004.20
2023-04-18T05:10:12.988Z,1004.21
2023-04-18T05:11:13.097Z,1004.20
2023-04-18T05:12:13.049Z,1004.21
2023-04-18T05:13:12.950Z,1004.22
2023-04-18T05:14:13.266Z,1004.21
2023-04-18T05:15:13.021Z,1004.21
2023-04-18T05:16:13.001Z,1004.21
2023-04-18T05:17:12.900Z,1004.21
2023-04-18T05:18:12.922Z,1004.21
2023-04-18T05:19:12.882Z,1004.22
2023-04-18T05:20:12.876Z,1004.22
2023-04-18T05:21:12.955Z,1004.23
2023-04-18T05:22:12.854Z,1004.24
2023-04-18T05:23:12.833Z,1004.26
2023-04-18T05:24:13.080Z,1004.25
2023-04-18T05:25:12.880Z,1004.24
2023-04-18T05:26:12.820Z,1004.24
2023-04-18T05:27:12.803Z,1004.24
2023-04-18T05:28:12.807Z,1004.26
2023-04-18T05:29:12.775Z,1004.26
2023-04-18T05:30:12.761Z,1004.28
2023-04-18T05:31:12.798Z,1004.27
2023-04-18T05:32:12.746Z,1004.27
2023-04-18T05:33:12.750Z,1004.29
2023-04-18T05:34:12.948Z,1004.30
2023-04-18T05:35:12.719Z,1004.30
2023-04-18T05:36:12.723Z,1004.31
2023-04-18T05:37:12.703Z,1004.33
2023-04-18T05:38:12.710Z,1004.34
2023-04-18T05:39:12.672Z,1004.35
2023-04-18T05:40:12.677Z,1004.35
2023-04-18T05:41:12.727Z,1004.37
2023-04-18T05:42:12.663Z,1004.38
2023-04-18T05:43:12.633Z,1004.37
2023-04-18T05:44:12.641Z,1004.36
2023-04-18T05:45:12.618Z,1004.36
2023-04-18T05:46:12.684Z,1004.36
2023-04-18T05:47:12.601Z,1004.37
2023-04-18T05:48:12.590Z,1004.36
2023-04-18T05:49:12.583Z,1004.37
2023-04-18T05:50:12.658Z,1004.37
2023-04-18T05:51:12.556Z,1004.38
2023-04-18T05:52:12.553Z,1004.39
2023-04-18T05:53:12.528Z,1004.38
2023-04-18T05:54:12.862Z,1004.39
2023-04-18T05:55:12.557Z,1004.39
2023-04-18T05:56:13.288Z,1004.41
2023-04-18T05:57:12.492Z,1004.43
2023-04-18T05:58:12.487Z,1004.43
2023-04-18T05:59:12.479Z,1004.44
2023-04-18T06:00:12.461Z,1004.47
2023-04-18T06:01:12.461Z,1004.47
2023-04-18T06:02:12.592Z,1004.48
2023-04-18T06:03:12.593Z,1004.49
2023-04-18T06:04:12.640Z,1004.50
2023-04-18T06:05:12.571Z,1004.52
2023-04-18T06:06:12.427Z,1004.54
2023-04-18T06:07:12.408Z,1004.55
2023-04-18T06:08:12.387Z,1004.57
2023-04-18T06:09:12.423Z,1004.56
2023-04-18T06:10:12.412Z,1004.57
2023-04-18T06:11:12.384Z,1004.57
2023-04-18T06:12:12.364Z,1004.57
2023-04-18T06:13:12.325Z,1004.58
2023-04-18T06:14:12.600Z,1004.60
2023-04-18T06:15:12.311Z,1004.59
2023-04-18T06:16:12.340Z,1004.59
2023-04-18T06:17:12.339Z,1004.61
2023-04-18T06:18:12.280Z,1004.64
2023-04-18T06:19:12.284Z,1004.61
2023-04-18T06:20:12.261Z,1004.62
2023-04-18T06:21:12.254Z,1004.64
2023-04-18T06:22:12.302Z,1004.63
2023-04-18T06:23:12.227Z,1004.63
2023-04-18T06:24:12.392Z,1004.63
2023-04-18T06:25:12.254Z,1004.66
2023-04-18T06:26:12.237Z,1004.67
2023-04-18T06:27:24.165Z,1004.67
2023-04-18T06:28:12.183Z,1004.66
2023-04-18T06:29:12.176Z,1004.66
2023-04-18T06:30:12.160Z,1004.66
2023-04-18T06:31:12.196Z,1004.67
2023-04-18T06:32:12.146Z,1004.68
2023-04-18T06:33:12.134Z,1004.67
2023-04-18T06:34:12.421Z,1004.70
2023-04-18T06:35:12.096Z,1004.70
2023-04-18T06:36:12.117Z,1004.74
2023-04-18T06:37:12.099Z,1004.74
2023-04-18T06:38:12.146Z,1004.74
2023-04-18T06:39:12.063Z,1004.72
2023-04-18T06:40:12.050Z,1004.71
2023-04-18T06:41:12.065Z,1004.72
2023-04-18T06:42:12.050Z,1004.74
2023-04-18T06:43:12.033Z,1004.75
2023-04-18T06:44:12.003Z,1004.75
2023-04-18T06:45:11.993Z,1004.77
2023-04-18T06:46:12.021Z,1004.78
2023-04-18T06:47:11.989Z,1004.78
2023-04-18T06:48:11.985Z,1004.82
2023-04-18T06:49:11.950Z,1004.81
2023-04-18T06:50:11.957Z,1004.84
2023-04-18T06:51:11.987Z,1004.85
2023-04-18T06:52:11.939Z,1004.86
2023-04-18T06:53:11.918Z,1004.88
2023-04-18T06:54:12.094Z,1004.87
2023-04-18T06:55:11.900Z,1004.87
2023-04-18T06:56:11.940Z,1004.87
2023-04-18T06:57:11.870Z,1004.87
2023-04-18T06:58:11.867Z,1004.88
2023-04-18T06:59:12.071Z,1004.86
2023-04-18T07:00:11.838Z,1004.87
2023-04-18T07:01:11.925Z,1004.87
2023-04-18T07:02:11.842Z,1004.86
2023-04-18T07:03:11.985Z,1004.88
2023-04-18T07:04:11.881Z,1004.87
2023-04-18T07:05:11.783Z,1004.88
2023-04-18T07:06:11.797Z,1004.89
2023-04-18T07:07:11.752Z,1004.92
2023-04-18T07:08:11.754Z,1004.94
2023-04-18T07:09:11.737Z,1004.96
2023-04-18T07:10:11.765Z,1004.95
2023-04-18T07:11:11.739Z,1004.95
2023-04-18T07:12:11.765Z,1004.95
2023-04-18T07:13:11.727Z,1004.96
2023-04-18T07:14:12.009Z,1004.98
2023-04-18T07:15:11.672Z,1004.97
2023-04-18T07:16:11.704Z,1004.97
2023-04-18T07:17:11.734Z,1004.96
2023-04-18T07:18:12.475Z,1004.96
2023-04-18T07:19:11.670Z,1005.00
2023-04-18T07:20:12.995Z,1004.96
2023-04-18T07:21:11.669Z,1004.94
2023-04-18T07:22:11.624Z,1004.95
2023-04-18T07:23:11.598Z,1004.98
2023-04-18T07:24:11.778Z,1004.96
2023-04-18T07:25:11.579Z,1004.97
2023-04-18T07:26:11.577Z,1004.95
2023-04-18T07:27:11.561Z,1004.94
2023-04-18T07:28:11.550Z,1004.97
2023-04-18T07:29:11.524Z,1004.94
2023-04-18T07:30:11.564Z,1004.96
2023-04-18T07:31:11.729Z,1004.96
2023-04-18T07:32:11.526Z,1004.92
2023-04-18T07:33:11.496Z,1004.96
2023-04-18T07:34:11.743Z,1004.96
2023-04-18T07:35:11.510Z,1004.97
2023-04-18T07:36:11.514Z,1004.94
2023-04-18T07:37:12.987Z,1004.98
2023-04-18T07:38:11.447Z,1004.97
2023-04-18T07:39:11.443Z,1004.97
2023-04-18T07:40:11.453Z,1004.99
2023-04-18T07:41:12.039Z,1004.97
2023-04-18T07:42:11.439Z,1004.95
2023-04-18T07:43:11.375Z,1004.98
2023-04-18T07:44:11.616Z,1004.97
2023-04-18T07:45:11.384Z,1004.98
2023-04-18T07:46:11.405Z,1004.99
2023-04-18T07:47:11.454Z,1005.00
2023-04-18T07:48:11.450Z,1005.00
2023-04-18T07:49:11.604Z,1004.99
2023-04-18T07:50:11.335Z,1005.01
2023-04-18T07:51:11.334Z,1005.01
2023-04-18T07:52:11.310Z,1005.07
2023-04-18T07:53:11.306Z,1005.01
2023-04-18T07:54:11.332Z,1005.02
2023-04-18T07:55:11.267Z,1005.03
2023-04-18T07:56:11.358Z,1005.05
2023-04-18T07:57:11.336Z,1005.06
2023-04-18T07:58:11.240Z,1005.09
2023-04-18T07:59:11.339Z,1005.09
2023-04-18T08:00:11.217Z,1005.08
2023-04-18T08:01:11.272Z,1005.09
2023-04-18T08:02:11.264Z,1005.10
2023-04-18T08:03:11.311Z,1005.10
2023-04-18T08:04:11.331Z,1005.11
2023-04-18T08:05:11.268Z,1005.14
2023-04-18T08:06:11.193Z,1005.09
2023-04-18T08:07:11.148Z,1005.13
2023-04-18T08:08:11.174Z,1005.12
2023-04-18T08:09:11.206Z,1005.13
2023-04-18T08:10:11.121Z,1005.13
2023-04-18T08:11:11.114Z,1005.14
2023-04-18T08:12:11.111Z,1005.14
2023-04-18T08:13:11.079Z,1005.13
2023-04-18T08:14:11.073Z,1005.15
2023-04-18T08:15:11.089Z,1005.14
2023-04-18T08:16:11.148Z,1005.15
2023-04-18T08:17:11.055Z,1005.12
2023-04-18T08:18:11.032Z,1005.17
2023-04-18T08:19:11.223Z,1005.16
2023-04-18T08:20:11.010Z,1005.19
2023-04-18T08:21:11.022Z,1005.14
2023-04-18T08:22:10.988Z,1005.12
2023-04-18T08:23:13.039Z,1005.14
2023-04-18T08:24:10.988Z,1005.16
2023-04-18T08:25:10.988Z,1005.16
2023-04-18T08:26:10.968Z,1005.18
2023-04-18T08:27:10.934Z,1005.14
2023-04-18T08:28:10.944Z,1005.19
2023-04-18T08:29:10.992Z,1005.21
2023-04-18T08:30:10.960Z,1005.22
2023-04-18T08:31:10.940Z,1005.21
2023-04-18T08:32:10.974Z,1005.20
2023-04-18T08:33:10.957Z,1005.22
2023-04-18T08:34:10.887Z,1005.22
2023-04-18T08:35:10.871Z,1005.22
2023-04-18T08:36:10.900Z,1005.23
2023-04-18T08:37:10.825Z,1005.24
2023-04-18T08:38:10.836Z,1005.23
2023-04-18T08:39:10.914Z,1005.26
2023-04-18T08:40:10.811Z,1005.27
2023-04-18T08:41:10.810Z,1005.23
2023-04-18T08:42:10.816Z,1005.26
2023-04-18T08:43:10.798Z,1005.29
2023-04-18T08:44:10.758Z,1005.32
2023-04-18T08:45:10.834Z,1005.30
2023-04-18T08:46:10.786Z,1005.32
2023-04-18T08:47:10.742Z,1005.30
2023-04-18T08:48:10.777Z,1005.31
2023-04-18T08:49:12.025Z,1005.31
2023-04-18T08:50:10.760Z,1005.32
2023-04-18T08:51:10.709Z,1005.31
2023-04-18T08:52:10.757Z,1005.29
2023-04-18T08:53:10.711Z,1005.28
2023-04-18T08:54:10.658Z,1005.31
2023-04-18T08:55:10.657Z,1005.31
2023-04-18T08:56:10.699Z,1005.31
2023-04-18T08:57:10.663Z,1005.28
2023-04-18T08:58:10.622Z,1005.28
2023-04-18T08:59:10.623Z,1005.27
2023-04-18T09:00:10.588Z,1005.30
2023-04-18T09:01:10.618Z,1005.29
2023-04-18T09:02:10.636Z,1005.28
2023-04-18T09:03:10.596Z,1005.28
2023-04-18T09:04:10.626Z,1005.31
2023-04-18T09:05:10.626Z,1005.29
2023-04-18T09:06:10.555Z,1005.29
2023-04-18T09:07:10.572Z,1005.28
2023-04-18T09:08:10.598Z,1005.28
2023-04-18T09:09:10.521Z,1005.26
2023-04-18T09:10:10.519Z,1005.28
2023-04-18T09:11:10.529Z,1005.26
2023-04-18T09:12:10.507Z,1005.26
2023-04-18T09:13:10.462Z,1005.26
2023-04-18T09:14:10.579Z,1005.27
2023-04-18T09:15:10.471Z,1005.27
2023-04-18T09:16:10.455Z,1005.25
2023-04-18T09:17:10.441Z,1005.30
2023-04-18T09:18:10.555Z,1005.27
2023-04-18T09:19:10.451Z,1005.24
2023-04-18T09:20:10.396Z,1005.23
2023-04-18T09:21:10.384Z,1005.21
2023-04-18T09:22:10.386Z,1005.20
2023-04-18T09:23:10.392Z,1005.23
2023-04-18T09:24:10.601Z,1005.28
2023-04-18T09:25:10.330Z,1005.22
2023-04-18T09:26:10.322Z,1005.20
2023-04-18T09:27:10.326Z,1005.18
2023-04-18T09:28:10.323Z,1005.24
2023-04-18T09:29:10.289Z,1005.25
2023-04-18T09:30:10.276Z,1005.26
2023-04-18T09:31:10.303Z,1005.23
2023-04-18T09:32:10.298Z,1005.25
2023-04-18T09:33:10.283Z,1005.27
2023-04-18T09:34:10.258Z,1005.24
2023-04-18T09:35:10.248Z,1005.25
2023-04-18T09:36:10.219Z,1005.20
2023-04-18T09:37:10.304Z,1005.19
2023-04-18T09:38:10.202Z,1005.19
2023-04-18T09:39:10.204Z,1005.17
2023-04-18T09:40:10.238Z,1005.18
2023-04-18T09:41:10.192Z,1005.15
2023-04-18T09:42:10.176Z,1005.14
2023-04-18T09:43:10.217Z,1005.12
2023-04-18T09:44:12.500Z,1005.05
2023-04-18T09:45:10.153Z,1005.07
2023-04-18T09:46:10.551Z,1005.06
2023-04-18T09:47:10.355Z,1005.08
2023-04-18T09:48:10.329Z,1005.08
2023-04-18T09:49:11.135Z,1005.08
2023-04-18T09:50:10.185Z,1005.11
2023-04-18T09:51:10.255Z,1005.13
2023-04-18T09:52:10.162Z,1005.14
2023-04-18T09:53:10.127Z,1005.13
2023-04-18T09:54:10.121Z,1005.14
2023-04-18T09:55:10.128Z,1005.13
2023-04-18T09:56:10.197Z,1005.13
2023-04-18T09:57:10.073Z,1005.13
2023-04-18T09:58:10.050Z,1005.11
2023-04-18T09:59:10.083Z,1005.09
2023-04-18T10:00:10.080Z,1005.16
2023-04-18T10:01:09.992Z,1005.12
2023-04-18T10:02:10.058Z,1005.15
2023-04-18T10:03:10.091Z,1005.13
2023-04-18T10:04:10.015Z,1005.14
2023-04-18T10:05:09.989Z,1005.12
2023-04-18T10:06:09.890Z,1005.13
2023-04-18T10:07:09.919Z,1005.14
2023-04-18T10:08:09.921Z,1005.12
2023-04-18T10:09:09.880Z,1005.14
2023-04-18T10:10:09.861Z,1005.10
2023-04-18T10:11:09.869Z,1005.11
2023-04-18T10:12:09.970Z,1005.12
2023-04-18T10:13:09.830Z,1005.12
2023-04-18T10:14:09.814Z,1005.12
2023-04-18T10:15:09.805Z,1005.12
2023-04-18T10:16:09.858Z,1005.09
2023-04-18T10:17:09.812Z,1005.12
2023-04-18T10:18:09.807Z,1005.09
2023-04-18T10:19:09.797Z,1005.11
2023-04-18T10:20:09.752Z,1005.14
2023-04-18T10:21:09.754Z,1005.16
2023-04-18T10:22:09.746Z,1005.14
2023-04-18T10:23:09.721Z,1005.17
2023-04-18T10:24:09.709Z,1005.17
2023-04-18T10:25:09.712Z,1005.20
2023-04-18T10:26:09.684Z,1005.18
2023-04-18T10:27:09.688Z,1005.16
2023-04-18T10:28:09.659Z,1005.16
2023-04-18T10:29:09.692Z,1005.16
2023-04-18T10:30:09.703Z,1005.16
2023-04-18T10:31:09.666Z,1005.14
2023-04-18T10:32:09.643Z,1005.14
2023-04-18T10:33:18.418Z,1005.12
2023-04-18T10:34:09.606Z,1005.09
2023-04-18T10:35:09.593Z,1005.08
2023-04-18T10:36:09.630Z,1005.07
2023-04-18T10:37:09.589Z,1005.03
2023-04-18T10:38:09.561Z,1005.04
2023-04-18T10:39:09.559Z,1005.03
2023-04-18T10:40:09.534Z,1005.02
2023-04-18T10:41:09.529Z,1005.00
2023-04-18T10:42:09.552Z,1005.00
2023-04-18T10:43:09.509Z,1004.99
2023-04-18T10:44:09.485Z,1004.97
2023-04-18T10:45:09.489Z,1004.98
2023-04-18T10:46:20.193Z,1004.96
2023-04-18T10:47:09.511Z,1004.94
2023-04-18T10:48:09.521Z,1004.95
2023-04-18T10:49:09.476Z,1004.97
2023-04-18T10:50:09.448Z,1004.97
2023-04-18T10:51:09.427Z,1004.96
2023-04-18T10:52:10.155Z,1004.95
2023-04-18T10:53:09.477Z,1004.97
2023-04-18T10:54:09.398Z,1004.97
2023-04-18T10:55:09.434Z,1004.94
2023-04-18T10:56:09.361Z,1004.96
2023-04-18T10:57:09.510Z,1004.95
2023-04-18T10:58:09.507Z,1004.95
2023-04-18T10:59:09.341Z,1004.95
2023-04-18T11:00:09.336Z,1004.92
2023-04-18T11:01:09.346Z,1004.94
2023-04-18T11:02:09.359Z,1004.93
2023-04-18T11:03:09.394Z,1004.97
2023-04-18T11:04:09.442Z,1004.92
2023-04-18T11:05:09.278Z,1004.96
2023-04-18T11:06:09.269Z,1004.94
2023-04-18T11:07:09.311Z,1004.93
2023-04-18T11:08:09.289Z,1004.91
2023-04-18T11:09:09.252Z,1004.90
2023-04-18T11:10:09.232Z,1004.89
2023-04-18T11:11:09.226Z,1004.89
2023-04-18T11:12:09.308Z,1004.91
2023-04-18T11:13:09.205Z,1004.94
2023-04-18T11:14:09.180Z,1004.90
2023-04-18T11:15:09.177Z,1004.90
2023-04-18T11:16:09.188Z,1004.87
2023-04-18T11:17:09.217Z,1004.89
2023-04-18T11:18:09.160Z,1004.90
2023-04-18T11:19:09.129Z,1004.90
2023-04-18T11:20:09.171Z,1004.91
2023-04-18T11:21:09.156Z,1004.90
2023-04-18T11:22:09.130Z,1004.92
2023-04-18T11:23:09.144Z,1004.89
2023-04-18T11:24:09.078Z,1004.87
2023-04-18T11:25:09.077Z,1004.90
2023-04-18T11:26:09.065Z,1004.89
2023-04-18T11:27:09.068Z,1004.89
2023-04-18T11:28:09.028Z,1004.89
2023-04-18T11:29:09.650Z,1004.90
2023-04-18T11:30:09.343Z,1004.90
2023-04-18T11:31:09.013Z,1004.91
2023-04-18T11:32:09.088Z,1004.92
2023-04-18T11:33:09.150Z,1004.92
2023-04-18T11:34:08.970Z,1004.93
2023-04-18T11:35:08.984Z,1004.89
2023-04-18T11:36:08.955Z,1004.88
2023-04-18T11:37:08.997Z,1004.88
2023-04-18T11:38:08.962Z,1004.89
2023-04-18T11:39:08.922Z,1004.89
2023-04-18T11:40:08.908Z,1004.88
2023-04-18T11:41:08.915Z,1004.87
2023-04-18T11:42:08.905Z,1004.89
2023-04-18T11:43:08.919Z,1004.88
2023-04-18T11:44:08.897Z,1004.87
2023-04-18T11:45:08.870Z,1004.86
2023-04-18T11:46:08.919Z,1004.87
2023-04-18T11:47:08.925Z,1004.89
2023-04-18T11:48:08.868Z,1004.87
2023-04-18T11:49:08.856Z,1004.87
2023-04-18T11:50:08.811Z,1004.88
2023-04-18T11:51:08.791Z,1004.88
2023-04-18T11:52:08.797Z,1004.90
2023-04-18T11:53:08.776Z,1004.88
2023-04-18T11:54:08.762Z,1004.87
2023-04-18T11:55:08.825Z,1004.90
2023-04-18T11:56:08.737Z,1004.87
2023-04-18T11:57:08.756Z,1004.87
2023-04-18T11:58:08.714Z,1004.88
2023-04-18T11:59:08.709Z,1004.88
2023-04-18T12:00:08.876Z,1004.89
2023-04-18T12:01:08.816Z,1004.89
2023-04-18T12:02:16.288Z,1004.90
2023-04-18T12:03:10.016Z,1004.93
2023-04-18T12:04:09.141Z,1004.91
2023-04-18T12:05:09.031Z,1004.89